createdAt,value
2023-04-16T00:01:34.150Z,86.57
2023-04-16T00:04:01.948Z,86.77
2023-04-16T00:06:29.851Z,86.93
2023-04-16T00:08:57.809Z,87.23
2023-04-16T00:11:25.677Z,87.48
2023-04-16T00:13:53.362Z,87.59
2023-04-16T00:16:21.326Z,87.61
2023-04-16T00:18:48.994Z,87.69
2023-04-16T00:21:16.662Z,87.73
2023-04-16T00:23:44.423Z,87.78
2023-04-16T00:26:12.210Z,87.91
2023-04-16T00:28:41.645Z,87.91
2023-04-16T00:31:09.357Z,87.99
2023-04-16T00:33:37.232Z,88.11
2023-04-16T00:36:05.317Z,88.10
2023-04-16T00:38:33.180Z,88.10
2023-04-16T00:41:00.937Z,88.18
2023-04-16T00:43:28.871Z,88.17
2023-04-16T00:45:57.527Z,88.27
2023-04-16T00:48:28.006Z,88.27
2023-04-16T00:50:56.201Z,88.38
2023-04-16T00:53:24.484Z,88.46
2023-04-16T00:55:52.287Z,88.41
2023-04-16T00:58:21.391Z,88.42
2023-04-16T01:00:49.133Z,88.41
2023-04-16T01:03:17.242Z,88.39
2023-04-16T01:05:46.322Z,88.40
2023-04-16T01:08:21.530Z,88.43
2023-04-16T01:10:49.346Z,88.38
2023-04-16T01:13:17.013Z,88.20
2023-04-16T01:15:44.650Z,88.11
2023-04-16T01:18:16.712Z,88.01
2023-04-16T01:20:45.946Z,87.92
2023-04-16T01:23:14.191Z,87.89
2023-04-16T01:25:41.975Z,87.86
2023-04-16T01:28:09.655Z,87.76
2023-04-16T01:30:37.425Z,87.72
2023-04-16T01:33:05.336Z,87.74
2023-04-16T01:35:33.030Z,87.53
2023-04-16T01:38:00.739Z,87.53
2023-04-16T01:40:28.519Z,87.62
2023-04-16T01:42:56.251Z,87.69
2023-04-16T01:45:23.883Z,87.80
2023-04-16T01:47:52.122Z,87.80
2023-04-16T01:50:21.243Z,87.78
2023-04-16T01:52:48.902Z,87.78
2023-04-16T01:55:16.522Z,87.70
2023-04-16T01:57:44.208Z,87.67
2023-04-16T02:00:11.889Z,87.66
2023-04-16T02:02:40.160Z,87.68
2023-04-16T02:05:08.162Z,87.55
2023-04-16T02:07:36.260Z,87.40
2023-04-16T02:10:05.374Z,87.45
2023-04-16T02:12:35.080Z,87.61
2023-04-16T02:15:03.342Z,87.65
2023-04-16T02:17:31.085Z,87.70
2023-04-16T02:19:58.825Z,87.69
2023-04-16T02:22:26.532Z,87.72
2023-04-16T02:24:56.557Z,87.64
2023-04-16T02:27:24.447Z,87.62
2023-04-16T02:29:52.110Z,87.67
2023-04-16T02:32:19.915Z,87.52
2023-04-16T02:34:47.659Z,87.57
2023-04-16T02:37:15.688Z,87.70
2023-04-16T02:39:43.998Z,87.62
2023-04-16T02:42:11.738Z,87.67
2023-04-16T02:44:39.816Z,87.71
2023-04-16T02:47:07.518Z,87.76
2023-04-16T02:49:35.896Z,87.75
2023-04-16T02:52:03.567Z,87.90
2023-04-16T02:54:31.152Z,88.10
2023-04-16T02:56:58.757Z,88.11
2023-04-16T02:59:26.975Z,88.10
2023-04-16T03:01:54.693Z,88.13
2023-04-16T03:04:22.811Z,88.08
2023-04-16T03:06:50.535Z,88.11
2023-04-16T03:09:18.216Z,88.08
2023-04-16T03:11:45.927Z,88.15
2023-04-16T03:14:13.625Z,88.44
2023-04-16T03:16:41.647Z,88.53
2023-04-16T03:19:09.534Z,88.55
2023-04-16T03:21:37.678Z,88.67
2023-04-16T03:24:05.764Z,88.57
2023-04-16T03:26:33.391Z,88.63
2023-04-16T03:29:02.249Z,88.63
2023-04-16T03:31:29.963Z,88.49
2023-04-16T03:33:57.606Z,88.29
2023-04-16T03:36:27.232Z,88.24
2023-04-16T03:38:54.829Z,88.28
2023-04-16T03:41:22.440Z,88.30
2023-04-16T03:43:51.191Z,88.43
2023-04-16T03:46:18.808Z,88.43
2023-04-16T03:48:46.606Z,88.46
2023-04-16T03:51:14.335Z,88.34
2023-04-16T03:53:41.924Z,88.42
2023-04-16T03:56:09.761Z,88.48
2023-04-16T03:58:37.457Z,88.59
2023-04-16T04:01:05.433Z,88.58
2023-04-16T04:03:33.145Z,88.60
2023-04-16T04:06:01.057Z,88.65
2023-04-16T04:08:28.754Z,88.69
2023-04-16T04:10:56.352Z,88.52
2023-04-16T04:13:24.086Z,88.54
2023-04-16T04:15:51.761Z,88.65
2023-04-16T04:18:19.413Z,88.60
2023-04-16T04:20:47.055Z,88.54
2023-04-16T04:23:14.928Z,88.56
2023-04-16T04:25:42.617Z,88.68
2023-04-16T04:28:10.318Z,88.75
2023-04-16T04:30:37.950Z,88.85
2023-04-16T04:33:05.750Z,88.79
2023-04-16T04:35:33.766Z,88.67
2023-04-16T04:38:03.505Z,88.28
2023-04-16T04:40:31.536Z,88.23
2023-04-16T04:42:59.104Z,88.38
2023-04-16T04:45:27.220Z,88.25
2023-04-16T04:47:55.733Z,87.64
2023-04-16T04:50:23.451Z,87.43
2023-04-16T04:52:51.247Z,87.62
2023-04-16T04:55:20.190Z,87.72
2023-04-16T04:57:49.038Z,87.23
2023-04-16T05:00:16.658Z,87.08
2023-04-16T05:02:44.461Z,87.20
2023-04-16T05:05:12.172Z,86.67
2023-04-16T05:07:39.780Z,86.57
2023-04-16T05:10:08.207Z,86.70
2023-04-16T05:12:35.872Z,86.67
2023-04-16T05:15:03.956Z,86.14
2023-04-16T05:17:31.610Z,85.86
2023-04-16T05:20:00.298Z,85.74
2023-04-16T05:22:28.018Z,85.87
2023-04-16T05:24:55.756Z,86.09
2023-04-16T05:27:23.414Z,86.13
2023-04-16T05:29:51.106Z,85.45
2023-04-16T05:32:19.208Z,85.15
2023-04-16T05:34:46.986Z,85.01
2023-04-16T05:37:15.515Z,84.73
2023-04-16T05:39:43.205Z,84.14
2023-04-16T05:42:10.873Z,83.49
2023-04-16T05:44:38.454Z,83.64
2023-04-16T05:47:07.832Z,83.61
2023-04-16T05:49:39.052Z,83.71
2023-04-16T05:52:07.511Z,83.90
2023-04-16T05:54:35.403Z,83.77
2023-04-16T05:57:04.007Z,83.83
2023-04-16T05:59:31.608Z,83.67
2023-04-16T06:02:01.144Z,83.90
2023-04-16T06:04:29.935Z,83.73
2023-04-16T06:06:58.021Z,83.88
2023-04-16T06:09:25.948Z,84.20
2023-04-16T06:11:53.830Z,84.37
2023-04-16T06:14:21.535Z,84.19
2023-04-16T06:16:49.239Z,84.23
2023-04-16T06:19:16.932Z,83.97
2023-04-16T06:21:44.673Z,83.28
2023-04-16T06:24:13.365Z,83.64
2023-04-16T06:26:41.113Z,83.64
2023-04-16T06:29:09.153Z,83.73
2023-04-16T06:31:37.800Z,83.46
2023-04-16T06:34:05.807Z,83.30
2023-04-16T06:36:33.674Z,83.05
2023-04-16T06:39:02.294Z,82.72
2023-04-16T06:41:30.951Z,82.57
2023-04-16T06:43:58.674Z,82.46
2023-04-16T06:46:26.426Z,82.34
2023-04-16T06:48:54.052Z,81.65
2023-04-16T06:51:21.772Z,81.64
2023-04-16T06:53:51.279Z,81.15
2023-04-16T06:56:19.116Z,80.82
2023-04-16T06:58:46.963Z,80.89
2023-04-16T07:01:14.930Z,80.71
2023-04-16T07:03:43.098Z,80.73
2023-04-16T07:06:10.842Z,80.33
2023-04-16T07:08:39.027Z,79.76
2023-04-16T07:11:07.010Z,78.89
2023-04-16T07:13:35.914Z,78.40
2023-04-16T07:16:04.134Z,78.26
2023-04-16T07:18:34.192Z,78.96
2023-04-16T07:21:02.518Z,79.14
2023-04-16T07:23:31.353Z,78.98
2023-04-16T07:26:02.252Z,78.46
2023-04-16T07:28:30.208Z,77.99
2023-04-16T07:30:58.272Z,77.65
2023-04-16T07:33:26.235Z,77.24
2023-04-16T07:35:55.366Z,76.61
2023-04-16T07:38:23.027Z,76.67
2023-04-16T07:40:51.372Z,76.64
2023-04-16T07:43:19.281Z,76.84
2023-04-16T07:45:47.254Z,76.82
2023-04-16T07:48:15.509Z,76.97
2023-04-16T07:50:46.505Z,76.86
2023-04-16T07:53:14.312Z,76.71
2023-04-16T07:55:44.455Z,76.82
2023-04-16T07:58:15.890Z,77.36
2023-04-16T08:00:43.800Z,77.70
2023-04-16T08:03:12.229Z,77.82
2023-04-16T08:05:40.298Z,77.73
2023-04-16T08:08:08.199Z,77.12
2023-04-16T08:10:36.006Z,76.72
2023-04-16T08:13:03.910Z,76.72
2023-04-16T08:15:32.483Z,76.88
2023-04-16T08:18:00.880Z,76.44
2023-04-16T08:20:28.892Z,76.40
2023-04-16T08:22:56.567Z,76.89
2023-04-16T08:25:24.810Z,77.03
2023-04-16T08:27:52.559Z,77.07
2023-04-16T08:30:21.935Z,76.99
2023-04-16T08:32:50.556Z,76.78
2023-04-16T08:35:18.477Z,76.14
2023-04-16T08:37:46.116Z,74.33
2023-04-16T08:40:14.083Z,74.15
2023-04-16T08:42:53.558Z,74.23
2023-04-16T08:45:21.805Z,73.84
2023-04-16T08:47:51.292Z,73.17
2023-04-16T08:50:26.603Z,73.57
2023-04-16T08:53:04.970Z,73.86
2023-04-16T08:55:38.843Z,72.30
2023-04-16T08:58:14.162Z,72.43
2023-04-16T09:00:43.465Z,72.86
2023-04-16T09:03:11.335Z,72.21
2023-04-16T09:05:39.830Z,71.51
2023-04-16T09:08:08.581Z,70.75
2023-04-16T09:10:36.760Z,69.63
2023-04-16T09:13:04.510Z,71.03
2023-04-16T09:15:35.201Z,71.65
2023-04-16T09:18:03.334Z,71.51
2023-04-16T09:20:31.169Z,71.25
2023-04-16T09:22:58.936Z,70.91
2023-04-16T09:25:26.954Z,69.70
2023-04-16T09:27:54.817Z,68.50
2023-04-16T09:30:24.973Z,68.31
2023-04-16T09:33:11.715Z,68.68
2023-04-16T09:35:50.568Z,68.76
2023-04-16T09:38:19.069Z,69.09
2023-04-16T09:40:49.942Z,69.71
2023-04-16T09:43:18.755Z,70.51
2023-04-16T09:45:54.006Z,70.73
2023-04-16T09:48:30.116Z,70.21
2023-04-16T09:50:59.360Z,69.42
2023-04-16T09:53:31.282Z,68.89
2023-04-16T09:56:01.581Z,68.80
2023-04-16T09:58:29.733Z,68.97
2023-04-16T10:01:11.533Z,68.35
2023-04-16T10:03:40.989Z,67.37
2023-04-16T10:06:21.942Z,66.58
2023-04-16T10:08:58.638Z,66.69
2023-04-16T10:11:27.147Z,66.66
2023-04-16T10:13:54.810Z,66.69
2023-04-16T10:16:23.578Z,67.17
2023-04-16T10:18:53.048Z,67.67
2023-04-16T10:21:21.550Z,68.27
2023-04-16T10:23:52.149Z,67.30
2023-04-16T10:26:20.075Z,67.88
2023-04-16T10:28:47.984Z,67.23
2023-04-16T10:31:16.284Z,67.81
2023-04-16T10:33:45.110Z,67.08
2023-04-16T10:36:28.946Z,66.78
2023-04-16T10:39:00.807Z,67.08
2023-04-16T10:41:29.056Z,66.72
2023-04-16T10:44:09.960Z,66.60
2023-04-16T10:46:42.920Z,65.04
2023-04-16T10:49:13.880Z,65.16
2023-04-16T10:51:42.153Z,65.54
2023-04-16T10:54:14.664Z,66.07
2023-04-16T10:56:45.203Z,64.49
2023-04-16T10:59:20.494Z,65.13
2023-04-16T11:01:55.377Z,65.57
2023-04-16T11:04:28.695Z,65.02
2023-04-16T11:07:11.831Z,65.13
2023-04-16T11:09:47.308Z,65.35
2023-04-16T11:12:35.857Z,65.24
2023-04-16T11:15:06.527Z,64.79
2023-04-16T11:17:43.215Z,63.45
2023-04-16T11:20:23.328Z,64.01
2023-04-16T11:22:52.920Z,63.03
2023-04-16T11:25:24.888Z,62.61
2023-04-16T11:27:53.342Z,62.97
2023-04-16T11:30:33.399Z,62.49
2023-04-16T11:33:06.102Z,61.31
2023-04-16T11:35:36.398Z,60.32
2023-04-16T11:38:06.200Z,58.88
2023-04-16T11:40:34.631Z,57.88
2023-04-16T11:43:59.927Z,57.06
2023-04-16T11:46:40.138Z,55.96
2023-04-16T11:49:10.972Z,54.49
2023-04-16T11:51:42.105Z,54.69
2023-04-16T11:54:11.885Z,53.85
2023-04-16T11:56:46.349Z,50.83
2023-04-16T11:59:14.597Z,52.06
2023-04-16T12:01:45.399Z,50.10
2023-04-16T12:04:15.279Z,47.30
2023-04-16T12:07:03.827Z,44.08
2023-04-16T12:09:30.700Z,43.43
2023-04-16T12:11:57.330Z,44.10
2023-04-16T12:14:26.786Z,44.19
2023-04-16T12:16:54.843Z,43.60
2023-04-16T12:19:21.302Z,42.10
2023-04-16T12:21:50.095Z,41.55
2023-04-16T12:24:23.435Z,39.45
2023-04-16T12:27:01.811Z,37.87
2023-04-16T12:29:28.248Z,38.25
2023-04-16T12:31:54.905Z,36.93
2023-04-16T12:34:22.243Z,36.16
2023-04-16T12:37:09.976Z,37.66
2023-04-16T12:39:36.382Z,37.41
2023-04-16T12:42:03.533Z,37.78
2023-04-16T12:44:30.336Z,38.26
2023-04-16T12:46:58.104Z,39.37
2023-04-16T12:49:24.750Z,40.61
2023-04-16T12:51:51.100Z,41.27
2023-04-16T12:54:17.649Z,42.09
2023-04-16T12:56:44.007Z,43.29
2023-04-16T12:59:11.081Z,44.24
2023-04-16T13:01:38.158Z,44.97
2023-04-16T13:04:05.393Z,46.05
2023-04-16T13:06:33.408Z,46.68
2023-04-16T13:09:00.480Z,47.07
2023-04-16T13:11:26.862Z,47.63
2023-04-16T13:13:53.279Z,48.06
2023-04-16T13:16:20.070Z,48.18
2023-04-16T13:18:46.514Z,48.66
2023-04-16T13:22:58.734Z,44.93
2023-04-16T13:25:26.601Z,42.19
2023-04-16T13:27:54.307Z,41.44
2023-04-16T13:30:22.173Z,40.77
2023-04-16T13:32:50.246Z,40.82
2023-04-16T13:35:18.296Z,39.90
2023-04-16T13:37:46.311Z,40.56
2023-04-16T13:40:14.255Z,39.16
2023-04-16T13:42:42.441Z,38.66
2023-04-16T13:45:11.477Z,38.15
2023-04-16T13:47:43.445Z,37.45
2023-04-16T13:50:11.458Z,36.99
2023-04-16T13:52:39.258Z,36.37
2023-04-16T13:55:09.503Z,36.33
2023-04-16T13:57:37.495Z,36.84
2023-04-16T14:00:06.142Z,36.51
2023-04-16T14:02:37.244Z,36.46
2023-04-16T14:05:06.903Z,35.57
2023-04-16T14:07:35.058Z,34.19
2023-04-16T14:10:03.035Z,32.84
2023-04-16T14:12:31.777Z,32.36
2023-04-16T14:14:59.984Z,31.77
2023-04-16T14:17:28.470Z,31.63
2023-04-16T14:22:44.817Z,31.49
2023-04-16T14:25:14.939Z,31.71
2023-04-16T14:27:42.860Z,33.78
2023-04-16T14:30:11.234Z,34.07
2023-04-16T14:32:39.199Z,33.95
2023-04-16T14:35:08.361Z,34.19
2023-04-16T14:37:39.002Z,34.55
2023-04-16T14:40:08.800Z,36.12
2023-04-16T14:42:38.175Z,36.74
2023-04-16T14:45:07.829Z,36.47
2023-04-16T14:47:38.455Z,38.31
2023-04-16T14:50:07.824Z,40.45
2023-04-16T14:52:38.274Z,42.11
2023-04-16T14:55:06.948Z,43.60
2023-04-16T14:57:35.362Z,45.13
2023-04-16T15:00:10.791Z,46.48
2023-04-16T15:02:38.880Z,47.36
2023-04-16T15:05:09.854Z,48.00
2023-04-16T15:07:37.721Z,48.37
2023-04-16T15:11:26.800Z,45.96
2023-04-16T15:13:54.668Z,45.41
2023-04-16T15:16:22.534Z,44.04
2023-04-16T15:18:53.470Z,41.45
2023-04-16T15:21:21.406Z,39.53
2023-04-16T15:23:49.300Z,37.75
2023-04-16T15:26:17.119Z,36.08
2023-04-16T15:28:44.861Z,35.96
2023-04-16T15:31:12.554Z,35.76
2023-04-16T15:33:40.513Z,36.56
2023-04-16T15:36:08.551Z,37.37
2023-04-16T15:38:36.376Z,36.35
2023-04-16T15:41:04.128Z,35.51
2023-04-16T15:43:32.594Z,35.44
2023-04-16T15:46:02.620Z,36.54
2023-04-16T15:48:30.872Z,37.17
2023-04-16T15:50:59.412Z,37.42
2023-04-16T15:53:27.413Z,37.76
2023-04-16T15:55:55.508Z,38.36
2023-04-16T15:58:23.307Z,38.80
2023-04-16T16:00:51.643Z,39.60
2023-04-16T16:03:20.608Z,40.68
2023-04-16T16:05:48.892Z,41.68
2023-04-16T16:08:17.030Z,42.32
2023-04-16T16:10:44.813Z,42.88
2023-04-16T16:13:14.164Z,42.80
2023-04-16T16:15:42.366Z,42.42
2023-04-16T16:18:10.307Z,42.42
2023-04-16T16:20:38.978Z,42.47
2023-04-16T16:23:07.181Z,42.94
2023-04-16T16:25:34.938Z,43.46
2023-04-16T16:28:06.331Z,44.01
2023-04-16T16:30:34.356Z,44.23
2023-04-16T16:33:02.171Z,44.33
2023-04-16T16:35:30.065Z,45.66
2023-04-16T16:37:59.449Z,48.00
2023-04-16T16:40:28.206Z,50.26
2023-04-16T16:42:56.209Z,52.26
2023-04-16T16:45:26.089Z,53.62
2023-04-16T16:47:54.970Z,55.39
2023-04-16T16:50:22.828Z,56.68
2023-04-16T16:52:50.472Z,57.74
2023-04-16T16:55:19.075Z,58.62
2023-04-16T16:57:46.959Z,59.54
2023-04-16T17:00:15.908Z,60.37
2023-04-16T17:02:44.031Z,61.65
2023-04-16T17:05:12.809Z,62.23
2023-04-16T17:07:40.538Z,63.11
2023-04-16T17:10:11.247Z,63.63
2023-04-16T17:12:39.019Z,64.11
2023-04-16T17:15:07.109Z,64.58
2023-04-16T17:17:35.243Z,65.19
2023-04-16T17:20:08.866Z,65.52
2023-04-16T17:22:38.006Z,65.81
2023-04-16T17:25:07.648Z,66.13
2023-04-16T17:27:35.559Z,66.73
2023-04-16T17:30:05.484Z,67.11
2023-04-16T17:32:33.363Z,67.34
2023-04-16T17:35:04.036Z,67.66
2023-04-16T17:37:32.417Z,67.94
2023-04-16T17:40:00.466Z,68.07
2023-04-16T17:42:28.170Z,68.03
2023-04-16T17:44:56.057Z,68.30
2023-04-16T17:47:23.908Z,68.55
2023-04-16T17:49:55.451Z,68.81
2023-04-16T17:52:23.246Z,68.84
2023-04-16T17:54:51.214Z,69.06
2023-04-16T17:57:18.875Z,69.28
2023-04-16T17:59:46.593Z,69.35
2023-04-16T18:02:14.477Z,69.67
2023-04-16T18:04:42.414Z,70.03
2023-04-16T18:07:10.261Z,70.24
2023-04-16T18:09:38.031Z,70.37
2023-04-16T18:12:06.435Z,70.69
2023-04-16T18:14:38.775Z,71.08
2023-04-16T18:17:06.837Z,71.34
2023-04-16T18:19:35.659Z,71.69
2023-04-16T18:22:03.481Z,71.93
2023-04-16T18:24:33.285Z,72.18
2023-04-16T18:27:01.746Z,72.28
2023-04-16T18:29:29.814Z,72.60
2023-04-16T18:31:58.081Z,72.73
2023-04-16T18:34:25.937Z,72.83
2023-04-16T18:36:53.643Z,73.07
2023-04-16T18:39:21.341Z,73.33
2023-04-16T18:41:49.252Z,73.50
2023-04-16T18:44:17.710Z,73.76
2023-04-16T18:46:46.419Z,73.88
2023-04-16T18:49:14.204Z,74.13
2023-04-16T18:51:44.700Z,74.34
2023-04-16T18:54:12.697Z,74.57
2023-04-16T18:56:40.730Z,74.88
2023-04-16T18:59:08.707Z,75.14
2023-04-16T19:01:36.758Z,75.30
2023-04-16T19:04:04.587Z,75.46
2023-04-16T19:06:32.754Z,75.63
2023-04-16T19:09:00.787Z,75.86
2023-04-16T19:11:28.605Z,75.95
2023-04-16T19:13:57.533Z,76.01
2023-04-16T19:16:28.016Z,76.30
2023-04-16T19:18:55.705Z,76.45
2023-04-16T19:21:23.421Z,76.59
2023-04-16T19:23:51.176Z,76.70
2023-04-16T19:26:18.906Z,76.85
2023-04-16T19:28:46.812Z,77.10
2023-04-16T19:31:14.498Z,77.27
2023-04-16T19:33:42.319Z,77.50
2023-04-16T19:36:09.959Z,77.74
2023-04-16T19:38:37.676Z,77.91
2023-04-16T19:41:05.393Z,78.08
2023-04-16T19:43:33.149Z,78.17
2023-04-16T19:46:00.977Z,78.16
2023-04-16T19:48:30.942Z,78.17
2023-04-16T19:51:03.343Z,78.21
2023-04-16T19:53:31.152Z,78.49
2023-04-16T19:55:58.798Z,78.73
2023-04-16T19:58:27.227Z,78.91
2023-04-16T20:00:55.726Z,79.22
2023-04-16T20:03:23.532Z,79.40
2023-04-16T20:05:51.350Z,79.40
2023-04-16T20:08:21.402Z,79.39
2023-04-16T20:10:49.321Z,79.51
2023-04-16T20:13:18.550Z,79.70
2023-04-16T20:15:47.354Z,79.77
2023-04-16T20:18:15.572Z,79.94
2023-04-16T20:20:43.407Z,80.11
2023-04-16T20:23:11.249Z,80.18
2023-04-16T20:25:42.932Z,80.34
2023-04-16T20:28:10.831Z,80.53
2023-04-16T20:30:41.393Z,80.70
2023-04-16T20:33:09.479Z,80.82
2023-04-16T20:35:37.288Z,80.99
2023-04-16T20:38:05.044Z,81.20
2023-04-16T20:40:32.891Z,81.38
2023-04-16T20:43:00.521Z,81.47
2023-04-16T20:45:32.199Z,81.67
2023-04-16T20:48:00.561Z,81.84
2023-04-16T20:50:28.830Z,81.90
2023-04-16T20:52:56.500Z,82.00
2023-04-16T20:55:24.564Z,82.03
2023-04-16T20:57:52.252Z,82.17
2023-04-16T21:00:20.213Z,82.19
2023-04-16T21:02:47.995Z,82.17
2023-04-16T21:05:16.303Z,82.14
2023-04-16T21:07:44.128Z,82.30
2023-04-16T21:10:11.851Z,82.42
2023-04-16T21:12:39.777Z,82.49
2023-04-16T21:15:08.228Z,82.53
2023-04-16T21:17:35.958Z,82.59
2023-04-16T21:20:06.941Z,82.66
2023-04-16T21:22:34.667Z,82.54
2023-04-16T21:25:02.745Z,82.52
2023-04-16T21:27:30.441Z,82.40
2023-04-16T21:29:58.112Z,82.24
2023-04-16T21:32:26.211Z,82.16
2023-04-16T21:34:54.074Z,82.12
2023-04-16T21:37:21.734Z,82.12
2023-04-16T21:39:49.393Z,82.17
2023-04-16T21:42:17.024Z,82.22
2023-04-16T21:44:44.657Z,82.25
2023-04-16T21:47:12.830Z,82.18
2023-04-16T21:49:42.225Z,82.25
2023-04-16T21:52:18.329Z,82.16
2023-04-16T21:54:46.737Z,82.17
2023-04-16T21:57:14.785Z,82.20
2023-04-16T21:59:42.542Z,82.24
2023-04-16T22:02:10.460Z,82.18
2023-04-16T22:04:38.591Z,82.16
2023-04-16T22:07:09.110Z,82.08
2023-04-16T22:09:36.838Z,82.03
2023-04-16T22:12:07.048Z,82.17
2023-04-16T22:14:34.891Z,82.26
2023-04-16T22:17:03.667Z,82.41
2023-04-16T22:19:31.893Z,82.60
2023-04-16T22:21:59.579Z,82.67
2023-04-16T22:24:28.292Z,82.76
2023-04-16T22:26:57.246Z,82.99
2023-04-16T22:29:25.082Z,83.19
2023-04-16T22:31:52.838Z,83.32
2023-04-16T22:34:22.713Z,83.38
2023-04-16T22:36:50.325Z,83.45
2023-04-16T22:39:17.995Z,83.49
2023-04-16T22:41:45.852Z,83.51
2023-04-16T22:44:13.461Z,83.52
2023-04-16T22:46:41.404Z,83.56
2023-04-16T22:49:09.345Z,83.60
2023-04-16T22:51:38.219Z,83.62
2023-04-16T22:54:09.272Z,83.65
2023-04-16T22:56:38.910Z,83.67
2023-04-16T22:59:07.483Z,83.59
2023-04-16T23:01:35.341Z,83.43
2023-04-16T23:04:03.259Z,83.39
2023-04-16T23:06:31.764Z,83.48
2023-04-16T23:08:59.421Z,83.61
2023-04-16T23:11:27.056Z,83.67
2023-04-16T23:13:54.784Z,83.73
2023-04-16T23:16:22.506Z,83.70
2023-04-16T23:18:50.366Z,83.82
2023-04-16T23:21:18.003Z,83.88
2023-04-16T23:23:45.758Z,83.82
2023-04-16T23:26:13.438Z,83.84
2023-04-16T23:28:41.366Z,83.94
2023-04-16T23:31:09.093Z,84.05
2023-04-16T23:33:36.770Z,84.12
2023-04-16T23:36:04.770Z,84.21
2023-04-16T23:38:32.529Z,84.32
2023-04-16T23:41:00.833Z,84.40
2023-04-16T23:43:28.612Z,84.29
2023-04-16T23:45:56.595Z,84.28
2023-04-16T23:48:24.393Z,84.28
2023-04-16T23:50:51.987Z,84.39
2023-04-16T23:53:19.968Z,84.41
2023-04-16T23:55:47.647Z,84.53
2023-04-16T23:58:15.726Z,84.61
